sensor_id;sensor_type;location;lat;lon;timestamp;temperature;humidity
25550;DHT22;13444;50.562;7.262;2022-11-04T00:01:25;11.50;99.90
25550;DHT22;13444;50.562;7.262;2022-11-04T00:03:51;11.50;99.90
25550;DHT22;13444;50.562;7.262;2022-11-04T00:06:17;11.40;99.90
25550;DHT22;13444;50.562;7.262;2022-11-04T00:08:53;11.40;99.90
25550;DHT22;13444;50.562;7.262;2022-11-04T00:11:20;11.40;99.90
25550;DHT22;13444;50.562;7.262;2022-11-04T00:14:06;11.40;99.90
25550;DHT22;13444;50.562;7.262;2022-11-04T00:16:32;11.40;99.90
25550;DHT22;13444;50.562;7.262;2022-11-04T00:19:30;11.30;99.90
25550;DHT22;13444;50.562;7.262;2022-11-04T00:22:15;11.30;99.90
25550;DHT22;13444;50.562;7.262;2022-11-04T00:24:59;11.40;99.90
25550;DHT22;13444;50.562;7.262;2022-11-04T00:27:43;11.30;99.90
25550;DHT22;13444;50.562;7.262;2022-11-04T00:30:28;11.30;99.90
25550;DHT22;13444;50.562;7.262;2022-11-04T00:32:53;11.20;99.90
25550;DHT22;13444;50.562;7.262;2022-11-04T00:35:37;11.20;99.90
25550;DHT22;13444;50.562;7.262;2022-11-04T00:38:03;11.30;99.90
25550;DHT22;13444;50.562;7.262;2022-11-04T00:40:28;11.20;99.90
25550;DHT22;13444;50.562;7.262;2022-11-04T00:42:54;11.20;99.90
25550;DHT22;13444;50.562;7.262;2022-11-04T00:45:19;11.10;99.90
25550;DHT22;13444;50.562;7.262;2022-11-04T00:47:45;11.10;99.90
25550;DHT22;13444;50.562;7.262;2022-11-04T00:50:10;11.10;99.90
25550;DHT22;13444;50.562;7.262;2022-11-04T00:52:36;11.00;99.90
25550;DHT22;13444;50.562;7.262;2022-11-04T00:55:01;10.90;99.90
25550;DHT22;13444;50.562;7.262;2022-11-04T00:57:27;10.80;99.90
25550;DHT22;13444;50.562;7.262;2022-11-04T00:59:52;10.80;99.90
25550;DHT22;13444;50.562;7.262;2022-11-04T01:02:18;10.80;99.90
25550;DHT22;13444;50.562;7.262;2022-11-04T01:04:43;10.70;99.90
25550;DHT22;13444;50.562;7.262;2022-11-04T01:07:10;10.70;99.90
25550;DHT22;13444;50.562;7.262;2022-11-04T01:09:36;10.70;99.90
25550;DHT22;13444;50.562;7.262;2022-11-04T01:12:01;10.70;99.90
25550;DHT22;13444;50.562;7.262;2022-11-04T01:14:27;10.70;99.90
25550;DHT22;13444;50.562;7.262;2022-11-04T01:16:53;10.70;99.90
25550;DHT22;13444;50.562;7.262;2022-11-04T01:19:18;10.70;99.90
25550;DHT22;13444;50.562;7.262;2022-11-04T01:21:44;10.70;99.90
25550;DHT22;13444;50.562;7.262;2022-11-04T01:24:09;10.70;99.90
25550;DHT22;13444;50.562;7.262;2022-11-04T01:26:35;10.70;99.90
25550;DHT22;13444;50.562;7.262;2022-11-04T01:29:01;10.70;99.90
25550;DHT22;13444;50.562;7.262;2022-11-04T01:31:29;10.70;99.90
25550;DHT22;13444;50.562;7.262;2022-11-04T01:33:55;10.70;99.90
25550;DHT22;13444;50.562;7.262;2022-11-04T01:36:22;10.70;99.90
25550;DHT22;13444;50.562;7.262;2022-11-04T01:38:48;10.70;99.90
25550;DHT22;13444;50.562;7.262;2022-11-04T01:41:20;10.70;99.90
25550;DHT22;13444;50.562;7.262;2022-11-04T01:43:52;10.60;99.90
25550;DHT22;13444;50.562;7.262;2022-11-04T01:48:52;10.50;99.90
25550;DHT22;13444;50.562;7.262;2022-11-04T01:51:20;10.50;99.90
25550;DHT22;13444;50.562;7.262;2022-11-04T01:53:47;10.50;99.90
25550;DHT22;13444;50.562;7.262;2022-11-04T01:56:15;10.40;99.90
25550;DHT22;13444;50.562;7.262;2022-11-04T01:58:48;10.40;99.90
25550;DHT22;13444;50.562;7.262;2022-11-04T02:01:14;10.30;99.90
25550;DHT22;13444;50.562;7.262;2022-11-04T02:03:49;10.30;99.90
25550;DHT22;13444;50.562;7.262;2022-11-04T02:06:17;10.20;99.90
25550;DHT22;13444;50.562;7.262;2022-11-04T02:08:44;10.20;99.90
25550;DHT22;13444;50.562;7.262;2022-11-04T02:11:10;10.20;99.90
25550;DHT22;13444;50.562;7.262;2022-11-04T02:13:56;10.10;99.90
25550;DHT22;13444;50.562;7.262;2022-11-04T02:16:41;10.10;99.90
25550;DHT22;13444;50.562;7.262;2022-11-04T02:24:46;9.80;99.90
25550;DHT22;13444;50.562;7.262;2022-11-04T02:27:23;9.80;99.90
25550;DHT22;13444;50.562;7.262;2022-11-04T02:33:26;9.70;99.90
25550;DHT22;13444;50.562;7.262;2022-11-04T02:36:07;9.60;99.90
25550;DHT22;13444;50.562;7.262;2022-11-04T02:38:46;9.50;99.90
25550;DHT22;13444;50.562;7.262;2022-11-04T02:41:38;9.40;99.90
25550;DHT22;13444;50.562;7.262;2022-11-04T02:44:17;9.40;99.90
25550;DHT22;13444;50.562;7.262;2022-11-04T02:46:50;9.40;99.90
25550;DHT22;13444;50.562;7.262;2022-11-04T02:49:19;9.30;99.90
25550;DHT22;13444;50.562;7.262;2022-11-04T02:51:51;9.20;99.90
25550;DHT22;13444;50.562;7.262;2022-11-04T02:54:45;9.10;99.90
25550;DHT22;13444;50.562;7.262;2022-11-04T02:57:13;9.10;99.90
25550;DHT22;13444;50.562;7.262;2022-11-04T02:59:45;9.00;99.90
25550;DHT22;13444;50.562;7.262;2022-11-04T03:02:18;9.00;99.90
25550;DHT22;13444;50.562;7.262;2022-11-04T03:04:48;8.90;99.90
25550;DHT22;13444;50.562;7.262;2022-11-04T03:07:17;9.00;99.90
25550;DHT22;13444;50.562;7.262;2022-11-04T03:09:50;8.90;99.90
25550;DHT22;13444;50.562;7.262;2022-11-04T03:12:21;9.00;99.90
25550;DHT22;13444;50.562;7.262;2022-11-04T03:14:54;9.00;99.90
25550;DHT22;13444;50.562;7.262;2022-11-04T03:17:33;8.90;99.90
25550;DHT22;13444;50.562;7.262;2022-11-04T03:20:03;8.90;99.90
25550;DHT22;13444;50.562;7.262;2022-11-04T03:22:34;8.90;99.90
25550;DHT22;13444;50.562;7.262;2022-11-04T03:25:01;8.90;99.90
25550;DHT22;13444;50.562;7.262;2022-11-04T03:30:08;8.70;99.90
25550;DHT22;13444;50.562;7.262;2022-11-04T03:32:43;8.70;99.90
25550;DHT22;13444;50.562;7.262;2022-11-04T03:35:12;8.60;99.90
25550;DHT22;13444;50.562;7.262;2022-11-04T03:37:38;8.50;99.90
25550;DHT22;13444;50.562;7.262;2022-11-04T03:40:04;8.40;99.90
25550;DHT22;13444;50.562;7.262;2022-11-04T03:42:34;8.50;99.90
25550;DHT22;13444;50.562;7.262;2022-11-04T03:45:01;8.40;99.90
25550;DHT22;13444;50.562;7.262;2022-11-04T03:47:28;8.40;99.90
25550;DHT22;13444;50.562;7.262;2022-11-04T03:50:13;8.40;99.90
25550;DHT22;13444;50.562;7.262;2022-11-04T03:52:42;8.30;99.90
25550;DHT22;13444;50.562;7.262;2022-11-04T03:55:08;8.30;99.90
25550;DHT22;13444;50.562;7.262;2022-11-04T04:00:44;8.10;99.90
25550;DHT22;13444;50.562;7.262;2022-11-04T04:03:18;8.10;99.90
25550;DHT22;13444;50.562;7.262;2022-11-04T04:05:58;8.10;99.90
25550;DHT22;13444;50.562;7.262;2022-11-04T04:08:34;8.00;99.90
25550;DHT22;13444;50.562;7.262;2022-11-04T04:11:16;8.00;99.90
25550;DHT22;13444;50.562;7.262;2022-11-04T04:16:20;8.00;99.90
25550;DHT22;13444;50.562;7.262;2022-11-04T04:19:02;8.00;99.90
25550;DHT22;13444;50.562;7.262;2022-11-04T04:21:34;8.00;99.90
25550;DHT22;13444;50.562;7.262;2022-11-04T04:24:04;8.00;99.90
25550;DHT22;13444;50.562;7.262;2022-11-04T04:26:58;8.00;99.90
25550;DHT22;13444;50.562;7.262;2022-11-04T04:29:44;8.00;99.90
25550;DHT22;13444;50.562;7.262;2022-11-04T04:32:11;8.00;99.90
25550;DHT22;13444;50.562;7.262;2022-11-04T04:34:37;8.00;99.90
25550;DHT22;13444;50.562;7.262;2022-11-04T04:42:34;8.10;99.90
25550;DHT22;13444;50.562;7.262;2022-11-04T04:45:25;8.00;99.90
25550;DHT22;13444;50.562;7.262;2022-11-04T04:47:52;8.00;99.90
25550;DHT22;13444;50.562;7.262;2022-11-04T04:50:19;8.10;99.90
25550;DHT22;13444;50.562;7.262;2022-11-04T04:52:48;8.10;99.90
25550;DHT22;13444;50.562;7.262;2022-11-04T04:55:14;8.10;99.90
25550;DHT22;13444;50.562;7.262;2022-11-04T04:57:40;8.10;99.90
25550;DHT22;13444;50.562;7.262;2022-11-04T05:00:08;8.10;99.90
25550;DHT22;13444;50.562;7.262;2022-11-04T05:02:34;8.10;99.90
25550;DHT22;13444;50.562;7.262;2022-11-04T05:05:00;8.00;99.90
25550;DHT22;13444;50.562;7.262;2022-11-04T05:07:26;8.00;99.90
25550;DHT22;13444;50.562;7.262;2022-11-04T05:09:51;8.10;99.90
25550;DHT22;13444;50.562;7.262;2022-11-04T05:12:17;8.10;99.90
25550;DHT22;13444;50.562;7.262;2022-11-04T05:14:42;8.10;99.90
25550;DHT22;13444;50.562;7.262;2022-11-04T05:17:08;8.10;99.90
25550;DHT22;13444;50.562;7.262;2022-11-04T05:19:34;8.10;99.90
25550;DHT22;13444;50.562;7.262;2022-11-04T05:21:59;8.10;99.90
25550;DHT22;13444;50.562;7.262;2022-11-04T05:24:25;8.10;99.90
25550;DHT22;13444;50.562;7.262;2022-11-04T05:26:50;8.10;99.90
25550;DHT22;13444;50.562;7.262;2022-11-04T05:29:16;8.10;99.90
25550;DHT22;13444;50.562;7.262;2022-11-04T05:31:42;8.00;99.90
25550;DHT22;13444;50.562;7.262;2022-11-04T05:34:10;8.00;99.90
25550;DHT22;13444;50.562;7.262;2022-11-04T05:36:35;8.00;99.90
25550;DHT22;13444;50.562;7.262;2022-11-04T05:39:01;8.00;99.90
25550;DHT22;13444;50.562;7.262;2022-11-04T05:41:27;8.00;99.90
25550;DHT22;13444;50.562;7.262;2022-11-04T05:44:03;8.00;99.90
25550;DHT22;13444;50.562;7.262;2022-11-04T05:46:29;8.00;99.90
25550;DHT22;13444;50.562;7.262;2022-11-04T05:48:55;8.00;99.90
25550;DHT22;13444;50.562;7.262;2022-11-04T05:51:23;8.00;99.90
25550;DHT22;13444;50.562;7.262;2022-11-04T05:53:49;8.00;99.90
25550;DHT22;13444;50.562;7.262;2022-11-04T05:56:14;8.00;99.90
25550;DHT22;13444;50.562;7.262;2022-11-04T05:58:40;7.90;99.90
25550;DHT22;13444;50.562;7.262;2022-11-04T06:01:33;7.90;99.90
25550;DHT22;13444;50.562;7.262;2022-11-04T06:03:59;7.80;99.90
25550;DHT22;13444;50.562;7.262;2022-11-04T06:06:26;7.80;99.90
25550;DHT22;13444;50.562;7.262;2022-11-04T06:08:53;7.70;99.90
25550;DHT22;13444;50.562;7.262;2022-11-04T06:11:19;7.70;99.90
25550;DHT22;13444;50.562;7.262;2022-11-04T06:13:45;8.00;99.90
25550;DHT22;13444;50.562;7.262;2022-11-04T06:16:10;8.10;99.90
25550;DHT22;13444;50.562;7.262;2022-11-04T06:18:36;8.00;99.90
25550;DHT22;13444;50.562;7.262;2022-11-04T06:23:40;7.90;99.90
25550;DHT22;13444;50.562;7.262;2022-11-04T06:26:06;7.90;99.90
25550;DHT22;13444;50.562;7.262;2022-11-04T06:28:32;7.90;99.90
25550;DHT22;13444;50.562;7.262;2022-11-04T06:30:59;7.80;99.90
25550;DHT22;13444;50.562;7.262;2022-11-04T06:33:25;7.80;99.90
25550;DHT22;13444;50.562;7.262;2022-11-04T06:35:51;7.90;99.90
25550;DHT22;13444;50.562;7.262;2022-11-04T06:38:17;7.90;99.90
25550;DHT22;13444;50.562;7.262;2022-11-04T06:40:42;8.00;99.90
25550;DHT22;13444;50.562;7.262;2022-11-04T06:43:08;8.10;99.90
25550;DHT22;13444;50.562;7.262;2022-11-04T06:45:33;8.40;99.90
25550;DHT22;13444;50.562;7.262;2022-11-04T06:47:59;8.50;99.90
25550;DHT22;13444;50.562;7.262;2022-11-04T06:50:24;8.50;99.90
25550;DHT22;13444;50.562;7.262;2022-11-04T06:52:50;8.50;99.90
25550;DHT22;13444;50.562;7.262;2022-11-04T06:55:15;8.50;99.90
25550;DHT22;13444;50.562;7.262;2022-11-04T06:57:41;8.50;99.90
25550;DHT22;13444;50.562;7.262;2022-11-04T07:00:07;8.60;99.90
25550;DHT22;13444;50.562;7.262;2022-11-04T07:02:32;8.70;99.90
25550;DHT22;13444;50.562;7.262;2022-11-04T07:04:58;8.70;99.90
25550;DHT22;13444;50.562;7.262;2022-11-04T07:07:23;8.70;99.90
25550;DHT22;13444;50.562;7.262;2022-11-04T07:09:49;8.70;99.90
25550;DHT22;13444;50.562;7.262;2022-11-04T07:12:14;8.70;99.90
25550;DHT22;13444;50.562;7.262;2022-11-04T07:14:40;8.70;99.90
25550;DHT22;13444;50.562;7.262;2022-11-04T07:17:06;8.80;99.90
25550;DHT22;13444;50.562;7.262;2022-11-04T07:19:31;8.80;99.90
25550;DHT22;13444;50.562;7.262;2022-11-04T07:21:57;8.90;99.90
25550;DHT22;13444;50.562;7.262;2022-11-04T07:24:22;8.90;99.90
25550;DHT22;13444;50.562;7.262;2022-11-04T07:26:48;9.00;99.90
25550;DHT22;13444;50.562;7.262;2022-11-04T07:29:13;9.00;99.90
25550;DHT22;13444;50.562;7.262;2022-11-04T07:31:39;9.10;99.90
25550;DHT22;13444;50.562;7.262;2022-11-04T07:34:05;9.20;99.90
25550;DHT22;13444;50.562;7.262;2022-11-04T07:36:30;9.30;99.90
25550;DHT22;13444;50.562;7.262;2022-11-04T07:38:56;9.40;99.90
25550;DHT22;13444;50.562;7.262;2022-11-04T07:41:22;9.50;99.90
25550;DHT22;13444;50.562;7.262;2022-11-04T07:43:50;9.60;99.90
25550;DHT22;13444;50.562;7.262;2022-11-04T07:46:17;9.60;99.90
25550;DHT22;13444;50.562;7.262;2022-11-04T07:48:42;9.70;99.90
25550;DHT22;13444;50.562;7.262;2022-11-04T07:51:11;9.70;99.90
25550;DHT22;13444;50.562;7.262;2022-11-04T07:53:37;9.80;99.90
25550;DHT22;13444;50.562;7.262;2022-11-04T07:56:05;9.90;99.90
25550;DHT22;13444;50.562;7.262;2022-11-04T07:58:31;9.90;99.90
25550;DHT22;13444;50.562;7.262;2022-11-04T08:00:58;10.10;99.90
25550;DHT22;13444;50.562;7.262;2022-11-04T08:03:24;10.20;99.90
25550;DHT22;13444;50.562;7.262;2022-11-04T08:05:56;10.20;99.90
25550;DHT22;13444;50.562;7.262;2022-11-04T08:08:22;10.30;99.90
25550;DHT22;13444;50.562;7.262;2022-11-04T08:10:55;10.40;99.90
25550;DHT22;13444;50.562;7.262;2022-11-04T08:13:22;10.40;99.90
25550;DHT22;13444;50.562;7.262;2022-11-04T08:15:47;10.50;99.90
25550;DHT22;13444;50.562;7.262;2022-11-04T08:18:13;10.50;99.90
25550;DHT22;13444;50.562;7.262;2022-11-04T08:20:38;10.50;99.90
25550;DHT22;13444;50.562;7.262;2022-11-04T08:23:04;10.50;99.90
25550;DHT22;13444;50.562;7.262;2022-11-04T08:25:30;10.60;99.90
25550;DHT22;13444;50.562;7.262;2022-11-04T08:27:55;10.60;99.90
25550;DHT22;13444;50.562;7.262;2022-11-04T08:30:21;10.60;99.90
25550;DHT22;13444;50.562;7.262;2022-11-04T08:32:46;10.60;99.90
25550;DHT22;13444;50.562;7.262;2022-11-04T08:35:12;10.60;99.90
25550;DHT22;13444;50.562;7.262;2022-11-04T08:37:37;10.70;99.90
25550;DHT22;13444;50.562;7.262;2022-11-04T08:40:03;10.70;99.90
25550;DHT22;13444;50.562;7.262;2022-11-04T08:42:29;10.70;99.90
25550;DHT22;13444;50.562;7.262;2022-11-04T08:44:54;10.80;99.90
25550;DHT22;13444;50.562;7.262;2022-11-04T08:47:20;10.80;99.90
25550;DHT22;13444;50.562;7.262;2022-11-04T08:49:46;10.90;99.90
25550;DHT22;13444;50.562;7.262;2022-11-04T08:52:11;10.90;99.90
25550;DHT22;13444;50.562;7.262;2022-11-04T08:54:37;10.90;99.90
25550;DHT22;13444;50.562;7.262;2022-11-04T08:57:02;11.00;99.90
25550;DHT22;13444;50.562;7.262;2022-11-04T08:59:28;11.00;99.90
25550;DHT22;13444;50.562;7.262;2022-11-04T09:01:54;11.00;99.90
25550;DHT22;13444;50.562;7.262;2022-11-04T09:04:19;11.00;99.90
25550;DHT22;13444;50.562;7.262;2022-11-04T09:06:45;11.10;99.90
25550;DHT22;13444;50.562;7.262;2022-11-04T09:09:14;11.10;99.90
25550;DHT22;13444;50.562;7.262;2022-11-04T09:11:41;11.10;99.90
25550;DHT22;13444;50.562;7.262;2022-11-04T09:14:08;11.10;99.90
25550;DHT22;13444;50.562;7.262;2022-11-04T09:16:35;11.20;99.90
25550;DHT22;13444;50.562;7.262;2022-11-04T09:19:01;11.30;99.90
25550;DHT22;13444;50.562;7.262;2022-11-04T09:21:27;11.30;99.90
25550;DHT22;13444;50.562;7.262;2022-11-04T09:23:53;11.40;99.90
25550;DHT22;13444;50.562;7.262;2022-11-04T09:26:20;11.40;99.90
25550;DHT22;13444;50.562;7.262;2022-11-04T09:28:46;11.50;99.90
25550;DHT22;13444;50.562;7.262;2022-11-04T09:31:17;11.50;99.90
25550;DHT22;13444;50.562;7.262;2022-11-04T09:33:44;11.50;99.90
25550;DHT22;13444;50.562;7.262;2022-11-04T09:36:10;11.60;99.90
25550;DHT22;13444;50.562;7.262;2022-11-04T09:38:37;11.60;99.90
25550;DHT22;13444;50.562;7.262;2022-11-04T09:44:25;11.90;99.90
25550;DHT22;13444;50.562;7.262;2022-11-04T09:46:53;12.00;99.90
25550;DHT22;13444;50.562;7.262;2022-11-04T09:49:22;12.30;99.90
25550;DHT22;13444;50.562;7.262;2022-11-04T09:51:49;12.50;99.90
25550;DHT22;13444;50.562;7.262;2022-11-04T09:54:25;12.90;99.90
25550;DHT22;13444;50.562;7.262;2022-11-04T09:56:54;13.20;99.90
25550;DHT22;13444;50.562;7.262;2022-11-04T09:59:26;13.70;99.90
25550;DHT22;13444;50.562;7.262;2022-11-04T10:02:07;14.40;99.90
25550;DHT22;13444;50.562;7.262;2022-11-04T10:07:51;14.20;99.90
25550;DHT22;13444;50.562;7.262;2022-11-04T10:18:08;15.80;99.90
25550;DHT22;13444;50.562;7.262;2022-11-04T10:23:37;16.40;99.90
25550;DHT22;13444;50.562;7.262;2022-11-04T10:26:17;16.70;99.90
25550;DHT22;13444;50.562;7.262;2022-11-04T10:28:50;16.80;99.90
25550;DHT22;13444;50.562;7.262;2022-11-04T10:31:17;16.70;99.90
25550;DHT22;13444;50.562;7.262;2022-11-04T10:33:47;16.70;99.90
25550;DHT22;13444;50.562;7.262;2022-11-04T10:36:16;16.60;99.90
25550;DHT22;13444;50.562;7.262;2022-11-04T10:38:53;16.70;99.90
25550;DHT22;13444;50.562;7.262;2022-11-04T10:41:33;16.80;99.90
25550;DHT22;13444;50.562;7.262;2022-11-04T10:44:29;17.00;99.90
25550;DHT22;13444;50.562;7.262;2022-11-04T10:47:08;17.00;99.90
25550;DHT22;13444;50.562;7.262;2022-11-04T10:50:00;16.80;99.90
25550;DHT22;13444;50.562;7.262;2022-11-04T10:52:32;16.60;99.90
25550;DHT22;13444;50.562;7.262;2022-11-04T10:54:58;15.80;99.90
25550;DHT22;13444;50.562;7.262;2022-11-04T10:57:24;15.60;99.90
25550;DHT22;13444;50.562;7.262;2022-11-04T11:00:00;15.40;99.90
25550;DHT22;13444;50.562;7.262;2022-11-04T11:02:47;15.50;99.90
25550;DHT22;13444;50.562;7.262;2022-11-04T11:07:46;16.10;99.90
25550;DHT22;13444;50.562;7.262;2022-11-04T11:10:31;16.30;99.90
25550;DHT22;13444;50.562;7.262;2022-11-04T11:12:59;16.70;99.90
25550;DHT22;13444;50.562;7.262;2022-11-04T11:15:36;16.90;99.90
25550;DHT22;13444;50.562;7.262;2022-11-04T11:18:15;17.10;99.90
25550;DHT22;13444;50.562;7.262;2022-11-04T11:20:46;17.30;99.90
25550;DHT22;13444;50.562;7.262;2022-11-04T11:23:38;17.20;99.90
25550;DHT22;13444;50.562;7.262;2022-11-04T11:26:07;16.90;99.90
25550;DHT22;13444;50.562;7.262;2022-11-04T11:28:34;16.90;99.90
25550;DHT22;13444;50.562;7.262;2022-11-04T11:31:05;16.70;99.90
25550;DHT22;13444;50.562;7.262;2022-11-04T11:33:39;16.30;99.90
25550;DHT22;13444;50.562;7.262;2022-11-04T11:36:18;15.90;99.90
25550;DHT22;13444;50.562;7.262;2022-11-04T11:39:00;15.70;99.90
25550;DHT22;13444;50.562;7.262;2022-11-04T11:41:29;15.80;99.90
25550;DHT22;13444;50.562;7.262;2022-11-04T11:44:46;15.90;99.90
25550;DHT22;13444;50.562;7.262;2022-11-04T11:46:54;15.80;99.90
25550;DHT22;13444;50.562;7.262;2022-11-04T11:49:35;15.60;99.90
25550;DHT22;13444;50.562;7.262;2022-11-04T11:52:33;15.40;99.90
25550;DHT22;13444;50.562;7.262;2022-11-04T11:55:17;15.20;99.90
25550;DHT22;13444;50.562;7.262;2022-11-04T12:00:16;14.80;99.90
25550;DHT22;13444;50.562;7.262;2022-11-04T12:05:15;14.50;99.90
25550;DHT22;13444;50.562;7.262;2022-11-04T12:07:54;14.70;99.90
25550;DHT22;13444;50.562;7.262;2022-11-04T12:10:36;14.70;99.90
25550;DHT22;13444;50.562;7.262;2022-11-04T12:16:17;14.40;99.90
25550;DHT22;13444;50.562;7.262;2022-11-04T12:18:48;14.30;99.90
25550;DHT22;13444;50.562;7.262;2022-11-04T12:21:26;14.30;99.90
25550;DHT22;13444;50.562;7.262;2022-11-04T12:24:20;14.40;99.90
25550;DHT22;13444;50.562;7.262;2022-11-04T12:27:16;14.50;99.90
25550;DHT22;13444;50.562;7.262;2022-11-04T12:32:40;14.50;99.90
25550;DHT22;13444;50.562;7.262;2022-11-04T12:40:44;14.20;99.90
25550;DHT22;13444;50.562;7.262;2022-11-04T12:43:24;14.10;99.90
25550;DHT22;13444;50.562;7.262;2022-11-04T12:46:09;14.00;99.90
25550;DHT22;13444;50.562;7.262;2022-11-04T12:48:45;14.10;99.90
25550;DHT22;13444;50.562;7.262;2022-11-04T12:56:45;14.40;99.90
25550;DHT22;13444;50.562;7.262;2022-11-04T13:02:28;14.60;99.90
25550;DHT22;13444;50.562;7.262;2022-11-04T13:07:52;15.00;99.90
25550;DHT22;13444;50.562;7.262;2022-11-04T13:10:31;15.00;99.90
25550;DHT22;13444;50.562;7.262;2022-11-04T13:13:00;15.00;99.90
25550;DHT22;13444;50.562;7.262;2022-11-04T13:15:29;14.90;99.90
25550;DHT22;13444;50.562;7.262;2022-11-04T13:18:02;14.90;99.90
25550;DHT22;13444;50.562;7.262;2022-11-04T13:20:41;14.80;99.90
25550;DHT22;13444;50.562;7.262;2022-11-04T13:23:16;14.80;99.90
25550;DHT22;13444;50.562;7.262;2022-11-04T13:25:44;14.90;99.90
25550;DHT22;13444;50.562;7.262;2022-11-04T13:28:15;14.80;99.90
25550;DHT22;13444;50.562;7.262;2022-11-04T13:31:06;14.70;99.90
25550;DHT22;13444;50.562;7.262;2022-11-04T13:34:10;14.60;99.90
25550;DHT22;13444;50.562;7.262;2022-11-04T13:36:44;14.60;99.90
25550;DHT22;13444;50.562;7.262;2022-11-04T13:39:29;14.50;99.90
25550;DHT22;13444;50.562;7.262;2022-11-04T13:44:25;14.40;99.90
25550;DHT22;13444;50.562;7.262;2022-11-04T13:46:55;14.40;99.90
25550;DHT22;13444;50.562;7.262;2022-11-04T13:49:28;14.30;99.90
25550;DHT22;13444;50.562;7.262;2022-11-04T13:52:11;14.30;99.90
25550;DHT22;13444;50.562;7.262;2022-11-04T13:57:24;14.10;99.90
25550;DHT22;13444;50.562;7.262;2022-11-04T14:02:46;14.00;99.90
25550;DHT22;13444;50.562;7.262;2022-11-04T14:16:35;13.80;99.90
25550;DHT22;13444;50.562;7.262;2022-11-04T14:18:54;13.80;99.90
25550;DHT22;13444;50.562;7.262;2022-11-04T14:21:22;13.80;99.90
25550;DHT22;13444;50.562;7.262;2022-11-04T14:23:54;13.70;99.90
25550;DHT22;13444;50.562;7.262;2022-11-04T14:26:24;13.60;99.90
25550;DHT22;13444;50.562;7.262;2022-11-04T14:29:21;13.60;99.90
25550;DHT22;13444;50.562;7.262;2022-11-04T14:31:50;13.60;99.90
25550;DHT22;13444;50.562;7.262;2022-11-04T14:34:31;13.50;99.90
25550;DHT22;13444;50.562;7.262;2022-11-04T14:36:59;13.50;99.90
25550;DHT22;13444;50.562;7.262;2022-11-04T14:39:33;13.40;99.90
25550;DHT22;13444;50.562;7.262;2022-11-04T14:42:03;13.40;99.90
25550;DHT22;13444;50.562;7.262;2022-11-04T14:47:20;13.40;99.90
25550;DHT22;13444;50.562;7.262;2022-11-04T14:50:04;13.50;99.90
25550;DHT22;13444;50.562;7.262;2022-11-04T14:55:28;13.90;99.90
25550;DHT22;13444;50.562;7.262;2022-11-04T14:57:56;14.30;99.90
25550;DHT22;13444;50.562;7.262;2022-11-04T15:00:38;14.60;99.90
25550;DHT22;13444;50.562;7.262;2022-11-04T15:05:51;15.00;99.90
25550;DHT22;13444;50.562;7.262;2022-11-04T15:08:27;15.00;99.90
25550;DHT22;13444;50.562;7.262;2022-11-04T15:10:58;14.70;99.90
25550;DHT22;13444;50.562;7.262;2022-11-04T15:13:24;14.50;99.90
25550;DHT22;13444;50.562;7.262;2022-11-04T15:15:52;14.20;99.90
25550;DHT22;13444;50.562;7.262;2022-11-04T15:18:20;14.00;99.90
25550;DHT22;13444;50.562;7.262;2022-11-04T15:20:52;13.90;99.90
25550;DHT22;13444;50.562;7.262;2022-11-04T15:23:30;13.80;99.90
25550;DHT22;13444;50.562;7.262;2022-11-04T15:25:58;13.60;99.90
25550;DHT22;13444;50.562;7.262;2022-11-04T15:28:33;13.50;99.90
25550;DHT22;13444;50.562;7.262;2022-11-04T15:31:05;13.50;99.90
25550;DHT22;13444;50.562;7.262;2022-11-04T15:33:45;13.40;99.90
25550;DHT22;13444;50.562;7.262;2022-11-04T15:36:17;13.40;99.90
25550;DHT22;13444;50.562;7.262;2022-11-04T15:38:52;13.30;99.90
25550;DHT22;13444;50.562;7.262;2022-11-04T15:41:21;13.30;99.90
25550;DHT22;13444;50.562;7.262;2022-11-04T15:44:22;13.30;99.90
25550;DHT22;13444;50.562;7.262;2022-11-04T15:46:56;13.20;99.90
25550;DHT22;13444;50.562;7.262;2022-11-04T15:49:30;13.20;99.90
25550;DHT22;13444;50.562;7.262;2022-11-04T15:52:07;13.20;99.90
25550;DHT22;13444;50.562;7.262;2022-11-04T15:54:39;13.10;99.90
25550;DHT22;13444;50.562;7.262;2022-11-04T15:59:51;13.00;99.90
25550;DHT22;13444;50.562;7.262;2022-11-04T16:02:26;12.90;99.90
25550;DHT22;13444;50.562;7.262;2022-11-04T16:05:02;13.00;99.90
25550;DHT22;13444;50.562;7.262;2022-11-04T16:07:34;13.00;99.90
25550;DHT22;13444;50.562;7.262;2022-11-04T16:10:00;13.00;99.90
25550;DHT22;13444;50.562;7.262;2022-11-04T16:12:28;12.80;99.90
25550;DHT22;13444;50.562;7.262;2022-11-04T16:14:58;12.80;99.90
25550;DHT22;13444;50.562;7.262;2022-11-04T16:17:25;12.70;99.90
25550;DHT22;13444;50.562;7.262;2022-11-04T16:19:53;12.60;99.90
25550;DHT22;13444;50.562;7.262;2022-11-04T16:22:25;12.50;99.90
25550;DHT22;13444;50.562;7.262;2022-11-04T16:24:52;12.50;99.90
25550;DHT22;13444;50.562;7.262;2022-11-04T16:27:20;12.40;99.90
25550;DHT22;13444;50.562;7.262;2022-11-04T16:30:02;12.40;99.90
25550;DHT22;13444;50.562;7.262;2022-11-04T16:32:40;12.40;99.90
25550;DHT22;13444;50.562;7.262;2022-11-04T16:37:44;12.30;99.90
25550;DHT22;13444;50.562;7.262;2022-11-04T16:40:10;12.20;99.90
25550;DHT22;13444;50.562;7.262;2022-11-04T16:42:36;12.20;99.90
25550;DHT22;13444;50.562;7.262;2022-11-04T16:45:03;12.10;99.90
25550;DHT22;13444;50.562;7.262;2022-11-04T16:47:33;12.10;99.90
25550;DHT22;13444;50.562;7.262;2022-11-04T16:50:00;12.10;99.90
25550;DHT22;13444;50.562;7.262;2022-11-04T16:52:26;12.10;99.90
25550;DHT22;13444;50.562;7.262;2022-11-04T16:54:52;12.10;99.90
25550;DHT22;13444;50.562;7.262;2022-11-04T16:57:21;12.10;99.90
25550;DHT22;13444;50.562;7.262;2022-11-04T16:59:47;12.10;99.90
25550;DHT22;13444;50.562;7.262;2022-11-04T17:02:30;12.10;99.90
25550;DHT22;13444;50.562;7.262;2022-11-04T17:04:57;12.10;99.90
25550;DHT22;13444;50.562;7.262;2022-11-04T17:07:23;12.10;99.90
25550;DHT22;13444;50.562;7.262;2022-11-04T17:09:48;12.10;99.90
25550;DHT22;13444;50.562;7.262;2022-11-04T17:12:14;12.00;99.90
25550;DHT22;13444;50.562;7.262;2022-11-04T17:14:40;12.00;99.90
25550;DHT22;13444;50.562;7.262;2022-11-04T17:17:05;12.00;99.90
25550;DHT22;13444;50.562;7.262;2022-11-04T17:19:31;12.00;99.90
25550;DHT22;13444;50.562;7.262;2022-11-04T17:21:58;11.90;99.90
25550;DHT22;13444;50.562;7.262;2022-11-04T17:24:25;11.90;99.90
25550;DHT22;13444;50.562;7.262;2022-11-04T17:26:50;11.90;99.90
25550;DHT22;13444;50.562;7.262;2022-11-04T17:29:16;11.80;99.90
25550;DHT22;13444;50.562;7.262;2022-11-04T17:31:41;11.70;99.90
25550;DHT22;13444;50.562;7.262;2022-11-04T17:34:07;11.70;99.90
25550;DHT22;13444;50.562;7.262;2022-11-04T17:36:33;11.60;99.90
25550;DHT22;13444;50.562;7.262;2022-11-04T17:38:59;11.70;99.90
25550;DHT22;13444;50.562;7.262;2022-11-04T17:41:24;11.70;99.90
25550;DHT22;13444;50.562;7.262;2022-11-04T17:44:08;11.60;99.90
25550;DHT22;13444;50.562;7.262;2022-11-04T17:46:34;11.60;99.90